createdAt,value
2023-01-04T00:01:17.701Z,14.57
2023-01-04T00:03:45.348Z,24.43
2023-01-04T00:06:13.725Z,20.27
2023-01-04T00:08:41.335Z,19.77
2023-01-04T00:11:11.170Z,25.37
2023-01-04T00:13:38.469Z,21.83
2023-01-04T00:16:08.131Z,28.07
2023-01-04T00:18:37.530Z,22.03
2023-01-04T00:21:10.154Z,21.37
2023-01-04T00:23:38.556Z,22.57
2023-01-04T00:26:09.924Z,19.33
2023-01-04T00:28:40.721Z,21.23
2023-01-04T00:31:09.676Z,19.03
2023-01-04T00:33:37.011Z,19.97
2023-01-04T00:36:14.013Z,23.33
2023-01-04T00:38:42.363Z,22.00
2023-01-04T00:41:18.939Z,23.40
2023-01-04T00:43:55.423Z,22.23
2023-01-04T00:46:22.794Z,23.47
2023-01-04T00:48:50.916Z,20.77
2023-01-04T00:51:26.185Z,23.83
2023-01-04T00:53:53.436Z,23.00
2023-01-04T00:56:25.037Z,24.93
2023-01-04T00:58:58.486Z,24.43
2023-01-04T01:01:26.183Z,21.97
2023-01-04T01:03:54.940Z,22.03
2023-01-04T01:06:22.735Z,25.47
2023-01-04T01:08:51.244Z,23.73
2023-01-04T01:11:18.797Z,24.90
2023-01-04T01:13:46.784Z,23.63
2023-01-04T01:16:15.237Z,25.00
2023-01-04T01:18:43.925Z,26.90
2023-01-04T01:21:15.837Z,23.80
2023-01-04T01:23:43.943Z,27.93
2023-01-04T01:26:12.570Z,28.60
2023-01-04T01:28:40.470Z,25.37
2023-01-04T01:31:08.758Z,27.07
2023-01-04T01:33:37.204Z,26.50
2023-01-04T01:36:05.296Z,24.63
2023-01-04T01:38:32.874Z,27.70
2023-01-04T01:41:02.281Z,24.77
2023-01-04T01:43:50.517Z,30.07
2023-01-04T01:46:20.796Z,28.47
2023-01-04T01:48:48.106Z,26.13
2023-01-04T01:51:16.711Z,28.77
2023-01-04T01:53:46.422Z,28.80
2023-01-04T01:56:17.103Z,29.03
2023-01-04T01:58:47.606Z,30.63
2023-01-04T02:01:14.962Z,27.77
2023-01-04T02:03:43.682Z,28.53
2023-01-04T02:06:12.434Z,30.00
2023-01-04T02:08:41.761Z,28.10
2023-01-04T02:11:09.383Z,27.43
2023-01-04T02:13:57.119Z,25.93
2023-01-04T02:16:25.577Z,26.10
2023-01-04T02:19:07.432Z,26.17
2023-01-04T02:21:50.438Z,31.40
2023-01-04T02:24:34.343Z,27.17
2023-01-04T02:27:07.454Z,28.97
2023-01-04T02:29:44.036Z,28.77
2023-01-04T02:32:26.646Z,29.43
2023-01-04T02:35:02.496Z,28.60
2023-01-04T02:37:38.907Z,31.87
2023-01-04T02:40:09.447Z,31.30
2023-01-04T02:42:58.367Z,33.73
2023-01-04T02:45:33.371Z,27.70
2023-01-04T02:48:25.755Z,29.00
2023-01-04T02:50:58.774Z,29.40
2023-01-04T02:53:42.228Z,34.03
2023-01-04T02:56:17.673Z,34.47
2023-01-04T02:59:03.658Z,28.60
2023-01-04T03:02:08.609Z,29.77
2023-01-04T03:04:57.271Z,26.63
2023-01-04T03:07:24.588Z,33.10
2023-01-04T03:09:53.874Z,31.20
2023-01-04T03:12:31.499Z,28.80
2023-01-04T03:15:02.139Z,29.43
2023-01-04T03:17:34.600Z,35.23
2023-01-04T03:20:02.522Z,34.83
2023-01-04T03:23:00.391Z,33.93
2023-01-04T03:26:07.484Z,31.77
2023-01-04T03:28:59.459Z,32.40
2023-01-04T03:31:52.471Z,34.07
2023-01-04T03:34:38.821Z,31.23
2023-01-04T03:37:06.082Z,30.83
2023-01-04T03:39:58.563Z,30.07
2023-01-04T03:42:50.585Z,29.77
2023-01-04T03:45:39.878Z,36.07
2023-01-04T03:48:30.555Z,32.73
2023-01-04T03:51:14.950Z,30.67
2023-01-04T03:53:55.144Z,30.23
2023-01-04T03:56:23.355Z,33.63
2023-01-04T03:58:51.734Z,33.63
2023-01-04T04:01:22.039Z,31.83
2023-01-04T04:04:08.402Z,34.00
2023-01-04T04:06:55.039Z,28.63
2023-01-04T04:09:23.534Z,32.27
2023-01-04T04:11:50.964Z,34.27
2023-01-04T04:14:18.189Z,31.73
2023-01-04T04:16:45.593Z,35.50
2023-01-04T04:19:13.210Z,28.70
2023-01-04T04:21:41.107Z,34.97
2023-01-04T04:24:08.370Z,35.63
2023-01-04T04:26:35.645Z,35.20
2023-01-04T04:29:04.367Z,35.40
2023-01-04T04:31:34.486Z,34.27
2023-01-04T04:34:01.822Z,30.37
2023-01-04T04:36:29.054Z,33.03
2023-01-04T04:38:57.261Z,36.00
2023-01-04T04:41:44.095Z,37.43
2023-01-04T04:44:12.685Z,35.73
2023-01-04T04:46:40.309Z,35.87
2023-01-04T04:49:10.313Z,36.57
2023-01-04T04:51:38.663Z,37.47
2023-01-04T04:54:06.481Z,39.87
2023-01-04T04:56:34.319Z,37.00
2023-01-04T04:59:01.598Z,35.90
2023-01-04T05:01:29.149Z,38.03
2023-01-04T05:03:56.901Z,37.00
2023-01-04T05:06:24.146Z,35.13
2023-01-04T05:08:51.469Z,34.83
2023-01-04T05:11:38.738Z,38.23
2023-01-04T05:14:06.013Z,40.03
2023-01-04T05:16:33.354Z,39.53
2023-01-04T05:19:01.663Z,37.13
2023-01-04T05:21:29.141Z,36.30
2023-01-04T05:23:57.556Z,41.53
2023-01-04T05:26:24.789Z,37.13
2023-01-04T05:28:54.208Z,41.27
2023-01-04T05:31:22.135Z,38.83
2023-01-04T05:33:49.457Z,40.47
2023-01-04T05:36:19.125Z,38.40
2023-01-04T05:38:46.359Z,41.53
2023-01-04T05:41:32.206Z,42.23
2023-01-04T05:43:59.481Z,38.60
2023-01-04T05:46:26.792Z,43.73
2023-01-04T05:48:54.157Z,41.73
2023-01-04T05:51:21.392Z,42.40
2023-01-04T05:53:48.662Z,41.13
2023-01-04T05:56:15.920Z,47.03
2023-01-04T05:58:43.149Z,38.73
2023-01-04T06:01:12.612Z,47.00
2023-01-04T06:03:40.275Z,40.33
2023-01-04T06:06:08.236Z,39.30
2023-01-04T06:08:35.885Z,40.97
2023-01-04T06:11:03.333Z,38.77
2023-01-04T06:13:32.437Z,40.20
2023-01-04T06:16:00.783Z,41.10
2023-01-04T06:18:28.457Z,47.07
2023-01-04T06:20:56.295Z,38.20
2023-01-04T06:23:23.793Z,42.20
2023-01-04T06:25:51.071Z,41.00
2023-01-04T06:28:18.357Z,44.93
2023-01-04T06:30:46.152Z,43.90
2023-01-04T06:33:16.443Z,42.53
2023-01-04T06:35:45.424Z,49.33
2023-01-04T06:38:16.474Z,42.30
2023-01-04T06:40:43.952Z,46.50
2023-01-04T06:43:11.487Z,40.67
2023-01-04T06:45:38.782Z,45.97
2023-01-04T06:48:09.232Z,41.03
2023-01-04T06:50:37.062Z,39.63
2023-01-04T06:53:04.592Z,44.27
2023-01-04T06:55:32.332Z,41.10
2023-01-04T06:57:59.904Z,47.53
2023-01-04T07:00:37.215Z,41.37
2023-01-04T07:05:56.197Z,42.03
2023-01-04T07:08:24.793Z,42.30
2023-01-04T07:10:52.625Z,39.47
2023-01-04T07:13:20.945Z,38.27
2023-01-04T07:15:49.434Z,38.83
2023-01-04T07:18:17.404Z,44.13
2023-01-04T07:20:44.909Z,40.90
2023-01-04T07:23:13.470Z,48.20
2023-01-04T07:25:40.720Z,41.20
2023-01-04T07:28:07.940Z,42.23
2023-01-04T07:30:39.619Z,40.83
2023-01-04T07:33:08.636Z,35.73
2023-01-04T07:35:35.943Z,43.63
2023-01-04T07:38:04.302Z,40.13
2023-01-04T07:40:31.541Z,39.57
2023-01-04T07:42:59.565Z,38.23
2023-01-04T07:45:27.767Z,44.17
2023-01-04T07:47:55.385Z,39.87
2023-01-04T07:50:22.645Z,44.60
2023-01-04T07:52:49.913Z,41.60
2023-01-04T07:55:19.955Z,41.73
2023-01-04T07:57:48.437Z,42.37
2023-01-04T08:00:15.935Z,47.17
2023-01-04T08:02:44.498Z,45.10
2023-01-04T08:05:12.003Z,48.63
2023-01-04T08:07:39.312Z,47.43
2023-01-04T08:10:08.978Z,45.10
2023-01-04T08:12:37.826Z,48.40
2023-01-04T08:15:07.469Z,44.47
2023-01-04T08:17:37.609Z,43.13
2023-01-04T08:20:07.915Z,51.97
2023-01-04T08:22:35.392Z,53.13
2023-01-04T08:25:02.814Z,47.97
2023-01-04T08:27:34.258Z,48.57
2023-01-04T08:30:01.587Z,48.30
2023-01-04T08:32:32.469Z,47.73
2023-01-04T08:35:00.894Z,50.40
2023-01-04T08:37:32.804Z,44.73
2023-01-04T08:40:00.398Z,47.43
2023-01-04T08:42:31.524Z,49.43
2023-01-04T08:45:02.042Z,48.07
2023-01-04T08:47:30.190Z,49.80
2023-01-04T08:49:58.796Z,47.57
2023-01-04T08:52:26.623Z,45.47
2023-01-04T08:54:55.490Z,44.93
2023-01-04T08:57:27.556Z,48.53
2023-01-04T09:00:02.589Z,45.57
2023-01-04T09:02:31.078Z,49.20
2023-01-04T09:05:04.371Z,43.87
2023-01-04T09:07:35.241Z,50.73
2023-01-04T09:12:50.870Z,52.83
2023-01-04T09:15:19.436Z,49.43
2023-01-04T09:18:20.611Z,49.30
2023-01-04T09:20:36.681Z,42.70
2023-01-04T09:23:05.581Z,43.50
2023-01-04T09:25:33.437Z,44.40
2023-01-04T09:28:02.098Z,47.23
2023-01-04T09:30:31.779Z,45.00
2023-01-04T09:32:59.281Z,51.40
2023-01-04T09:35:30.344Z,46.13
2023-01-04T09:37:59.516Z,48.33
2023-01-04T09:40:35.341Z,46.40
2023-01-04T09:43:20.204Z,45.57
2023-01-04T09:45:55.154Z,46.60
2023-01-04T09:48:26.188Z,50.77
2023-01-04T09:50:57.208Z,46.40
2023-01-04T09:53:29.499Z,45.00
2023-01-04T09:56:09.907Z,44.50
2023-01-04T09:58:40.772Z,41.47
2023-01-04T10:01:15.796Z,43.17
2023-01-04T10:04:06.783Z,46.60
2023-01-04T10:06:37.033Z,44.37
2023-01-04T10:09:06.269Z,43.73
2023-01-04T10:11:58.277Z,44.20
2023-01-04T10:14:46.462Z,41.17
2023-01-04T10:17:16.043Z,43.03
2023-01-04T10:22:52.192Z,38.57
2023-01-04T10:25:40.132Z,42.23
2023-01-04T10:28:08.037Z,37.97
2023-01-04T10:30:46.497Z,39.97
2023-01-04T10:33:20.211Z,39.00
2023-01-04T10:35:48.906Z,34.20
2023-01-04T10:38:19.238Z,40.93
2023-01-04T10:40:51.677Z,41.87
2023-01-04T10:44:11.461Z,35.30
2023-01-04T10:46:45.505Z,34.77
2023-01-04T10:49:18.073Z,38.37
2023-01-04T10:51:55.020Z,34.93
2023-01-04T10:54:37.475Z,38.77
2023-01-04T10:57:17.813Z,39.17
2023-01-04T11:00:09.483Z,39.60
2023-01-04T11:02:49.752Z,36.00
2023-01-04T11:05:23.411Z,39.13
2023-01-04T11:08:02.788Z,35.57
2023-01-04T11:10:48.976Z,37.40
2023-01-04T11:13:22.089Z,42.87
2023-01-04T11:15:49.872Z,41.73
2023-01-04T11:18:17.412Z,45.83
2023-01-04T11:20:47.339Z,39.53
2023-01-04T11:23:16.181Z,40.53
2023-01-04T11:26:05.367Z,36.17
2023-01-04T11:28:35.801Z,37.30
2023-01-04T11:31:11.725Z,45.27
2023-01-04T11:33:52.607Z,35.33
2023-01-04T11:36:39.844Z,36.40
2023-01-04T11:39:20.414Z,38.43
2023-01-04T11:42:06.878Z,38.00
2023-01-04T11:44:37.439Z,37.10
2023-01-04T11:47:24.268Z,37.93
2023-01-04T11:49:52.737Z,40.80
2023-01-04T11:52:28.992Z,42.77
2023-01-04T11:54:56.869Z,36.30
2023-01-04T11:57:24.267Z,39.40
2023-01-04T12:00:10.603Z,43.23
2023-01-04T12:05:30.332Z,48.27
2023-01-04T12:08:00.398Z,43.53
2023-01-04T12:10:31.036Z,38.70
2023-01-04T12:13:19.522Z,41.13
2023-01-04T12:16:21.484Z,40.53
2023-01-04T12:18:55.780Z,38.80
2023-01-04T12:21:32.908Z,42.63
2023-01-04T12:24:09.355Z,43.60
2023-01-04T12:26:48.593Z,39.90
2023-01-04T12:30:13.465Z,43.43
2023-01-04T12:32:52.364Z,39.23
2023-01-04T12:35:38.146Z,44.07
2023-01-04T12:38:05.785Z,43.40
2023-01-04T12:40:58.946Z,46.40
2023-01-04T12:43:27.398Z,41.33
2023-01-04T12:46:41.018Z,41.67
2023-01-04T12:49:30.554Z,40.77
2023-01-04T12:52:30.648Z,39.43
2023-01-04T12:55:04.024Z,41.03
2023-01-04T12:57:39.306Z,41.10
2023-01-04T13:03:22.040Z,41.30
2023-01-04T13:09:24.797Z,39.77
2023-01-04T13:12:08.818Z,36.83
2023-01-04T13:14:45.242Z,41.37
2023-01-04T13:17:23.792Z,40.67
2023-01-04T13:19:57.332Z,36.30
2023-01-04T13:22:37.253Z,36.20
2023-01-04T13:25:13.519Z,39.83
2023-01-04T13:27:57.092Z,37.50
2023-01-04T13:30:32.882Z,41.33
2023-01-04T13:33:27.624Z,34.53
2023-01-04T13:36:01.274Z,34.83
2023-01-04T13:38:30.984Z,35.77
2023-01-04T13:41:00.205Z,33.60
2023-01-04T13:44:09.248Z,32.27
2023-01-04T13:46:37.793Z,34.37
2023-01-04T13:49:10.546Z,38.33
2023-01-04T13:51:41.863Z,35.10
2023-01-04T13:54:20.705Z,30.57
2023-01-04T13:56:56.186Z,34.47
2023-01-04T13:59:27.238Z,34.27
2023-01-04T14:02:01.078Z,33.37
2023-01-04T14:04:34.282Z,34.60
2023-01-04T14:07:05.405Z,32.17
2023-01-04T14:12:36.954Z,31.33
2023-01-04T14:18:37.859Z,34.33
2023-01-04T14:21:39.802Z,38.27
2023-01-04T14:25:07.719Z,31.80
2023-01-04T14:27:38.663Z,32.67
2023-01-04T14:30:18.352Z,35.97
2023-01-04T14:33:24.931Z,32.43
2023-01-04T14:36:08.904Z,32.33
2023-01-04T14:38:56.061Z,31.20
2023-01-04T14:41:25.964Z,32.13
2023-01-04T14:44:04.603Z,32.20
2023-01-04T14:46:46.126Z,35.60
2023-01-04T14:49:16.539Z,33.80
2023-01-04T14:51:46.141Z,35.07
2023-01-04T14:54:25.486Z,32.77
2023-01-04T14:56:59.271Z,29.10
2023-01-04T14:59:33.043Z,31.37
2023-01-04T15:02:05.129Z,29.63
2023-01-04T15:04:33.385Z,36.47
2023-01-04T15:07:02.241Z,32.80
2023-01-04T15:09:38.990Z,31.47
2023-01-04T15:12:09.724Z,31.33
2023-01-04T15:14:41.156Z,31.57
2023-01-04T15:19:53.377Z,30.50
2023-01-04T15:22:27.674Z,31.30
2023-01-04T15:24:59.042Z,30.43
2023-01-04T15:27:49.511Z,31.90
2023-01-04T15:30:23.782Z,31.17
2023-01-04T15:32:59.840Z,35.33
2023-01-04T15:35:30.527Z,34.80
2023-01-04T15:38:00.036Z,32.07
2023-01-04T15:40:42.650Z,32.47
2023-01-04T15:43:16.159Z,34.90
2023-01-04T15:45:57.597Z,30.93
2023-01-04T15:48:27.444Z,34.23
2023-01-04T15:51:19.644Z,31.73
2023-01-04T15:54:02.346Z,31.73
2023-01-04T15:56:36.521Z,34.10
2023-01-04T15:59:29.519Z,35.63
2023-01-04T16:05:10.524Z,34.47
2023-01-04T16:07:58.297Z,33.80
2023-01-04T16:10:28.049Z,35.40
2023-01-04T16:13:01.620Z,31.37
2023-01-04T16:15:29.793Z,31.43
2023-01-04T16:17:58.757Z,34.37
2023-01-04T16:20:27.161Z,34.03
2023-01-04T16:22:54.696Z,33.20
2023-01-04T16:25:29.575Z,32.23
2023-01-04T16:27:57.017Z,31.13
2023-01-04T16:30:29.865Z,31.23
2023-01-04T16:35:57.595Z,27.50
2023-01-04T16:38:46.780Z,28.00
2023-01-04T16:41:17.010Z,29.73
2023-01-04T16:43:50.551Z,25.13
2023-01-04T16:49:21.358Z,24.67
2023-01-04T16:51:49.380Z,26.30
2023-01-04T16:54:18.309Z,21.27
2023-01-04T16:56:48.791Z,23.70
2023-01-04T16:59:18.182Z,21.47
2023-01-04T17:01:52.701Z,19.60
2023-01-04T17:04:24.577Z,24.70
2023-01-04T17:06:54.857Z,17.73
2023-01-04T17:09:22.659Z,20.80
2023-01-04T17:15:00.729Z,20.80
2023-01-04T17:17:35.589Z,22.00
2023-01-04T17:20:04.588Z,21.80
2023-01-04T17:22:34.469Z,20.30
2023-01-04T17:25:04.643Z,18.57
2023-01-04T17:27:33.650Z,19.53
2023-01-04T17:30:04.789Z,21.23
2023-01-04T17:32:37.531Z,20.53
2023-01-04T17:35:05.263Z,18.03
2023-01-04T17:37:32.763Z,17.13
2023-01-04T17:40:03.811Z,17.47
2023-01-04T17:42:35.997Z,17.27
2023-01-04T17:45:17.551Z,15.87
2023-01-04T17:47:45.910Z,16.03
2023-01-04T17:50:17.727Z,18.10
2023-01-04T17:52:54.462Z,16.93
2023-01-04T17:55:31.386Z,19.57
2023-01-04T17:57:58.952Z,18.13
2023-01-04T18:00:27.603Z,19.10
2023-01-04T18:02:58.071Z,19.73
2023-01-04T18:05:25.721Z,17.50
2023-01-04T18:07:57.871Z,17.30
2023-01-04T18:10:41.257Z,20.33
2023-01-04T18:13:38.050Z,20.97
2023-01-04T18:21:50.571Z,21.77
2023-01-04T18:27:21.386Z,19.80
2023-01-04T18:29:50.524Z,20.80
2023-01-04T18:32:31.803Z,30.60
2023-01-04T18:35:07.711Z,19.70
2023-01-04T18:37:37.680Z,21.73
2023-01-04T18:40:17.914Z,21.70
2023-01-04T18:42:51.787Z,20.57
2023-01-04T18:45:39.012Z,20.97
2023-01-04T18:48:06.700Z,21.17
2023-01-04T18:50:35.605Z,23.17
2023-01-04T18:53:04.126Z,21.50
2023-01-04T18:55:31.408Z,22.30
2023-01-04T18:57:58.659Z,20.97
2023-01-04T19:00:29.931Z,20.03
2023-01-04T19:02:58.385Z,20.60
2023-01-04T19:05:27.753Z,19.20
2023-01-04T19:07:58.102Z,21.47
2023-01-04T19:10:25.408Z,20.07
2023-01-04T19:12:52.704Z,18.97
2023-01-04T19:15:19.926Z,19.47
2023-01-04T19:17:49.521Z,23.40
2023-01-04T19:20:17.411Z,21.33
2023-01-04T19:22:49.328Z,20.67
2023-01-04T19:25:16.677Z,21.10
2023-01-04T19:27:44.559Z,17.33
2023-01-04T19:30:19.128Z,19.37
2023-01-04T19:32:52.131Z,16.43
2023-01-04T19:35:21.063Z,17.17
2023-01-04T19:37:48.778Z,18.33
2023-01-04T19:40:20.233Z,19.23
2023-01-04T19:42:50.360Z,15.67
2023-01-04T19:45:19.207Z,17.47
2023-01-04T19:47:47.506Z,16.90
2023-01-04T19:50:15.064Z,17.90
2023-01-04T19:52:44.461Z,18.97
2023-01-04T19:55:12.584Z,16.50
2023-01-04T19:57:39.858Z,17.17
2023-01-04T20:00:10.135Z,16.23
2023-01-04T20:02:39.714Z,18.87
2023-01-04T20:05:07.540Z,19.07
2023-01-04T20:07:34.838Z,18.87
2023-01-04T20:10:02.979Z,19.63
2023-01-04T20:12:33.632Z,18.70
2023-01-04T20:15:21.512Z,19.30
2023-01-04T20:17:51.627Z,17.60
2023-01-04T20:20:20.788Z,17.40
2023-01-04T20:22:48.386Z,17.30
2023-01-04T20:25:15.928Z,16.93
2023-01-04T20:27:43.311Z,18.53
2023-01-04T20:30:12.633Z,18.90
2023-01-04T20:32:49.633Z,16.80
2023-01-04T20:35:19.982Z,19.47
2023-01-04T20:37:56.726Z,18.20
2023-01-04T20:40:43.978Z,16.90
2023-01-04T20:43:31.299Z,15.80
2023-01-04T20:46:11.572Z,13.83
2023-01-04T20:48:50.281Z,14.67
2023-01-04T20:51:19.287Z,16.10
2023-01-04T20:56:37.420Z,14.13
2023-01-04T20:59:05.219Z,17.07
2023-01-04T21:01:32.847Z,17.33
2023-01-04T21:04:02.907Z,18.60
2023-01-04T21:06:32.100Z,17.93
2023-01-04T21:08:59.468Z,19.73
2023-01-04T21:11:27.554Z,15.33
2023-01-04T21:13:54.852Z,18.27
2023-01-04T21:16:24.391Z,17.90
2023-01-04T21:18:52.912Z,16.10
2023-01-04T21:21:22.758Z,17.40
2023-01-04T21:23:57.600Z,19.00
2023-01-04T21:26:26.787Z,18.20
2023-01-04T21:28:54.532Z,19.83
2023-01-04T21:31:25.123Z,17.30
2023-01-04T21:33:53.639Z,18.10
2023-01-04T21:36:22.722Z,17.97
2023-01-04T21:38:53.463Z,17.33
2023-01-04T21:41:24.849Z,17.50
2023-01-04T21:43:56.895Z,18.33
2023-01-04T21:46:25.919Z,20.07
2023-01-04T21:48:59.375Z,18.23
2023-01-04T21:51:27.865Z,21.03
2023-01-04T21:53:56.024Z,16.63
2023-01-04T21:56:24.101Z,19.37
2023-01-04T21:58:52.140Z,19.53
2023-01-04T22:01:21.768Z,18.93
2023-01-04T22:03:50.435Z,20.47
2023-01-04T22:06:17.962Z,17.93
2023-01-04T22:08:46.710Z,19.43
2023-01-04T22:11:14.520Z,18.23
2023-01-04T22:13:42.109Z,17.90
2023-01-04T22:16:10.961Z,18.03
2023-01-04T22:18:38.634Z,18.07
2023-01-04T22:21:13.450Z,18.83
2023-01-04T22:23:40.700Z,16.20
2023-01-04T22:26:08.409Z,14.83
2023-01-04T22:28:39.843Z,16.40
2023-01-04T22:31:08.860Z,18.37
2023-01-04T22:33:39.691Z,16.97
2023-01-04T22:36:07.119Z,14.67
2023-01-04T22:38:35.591Z,16.10
2023-01-04T22:41:07.094Z,16.23
2023-01-04T22:43:34.549Z,14.70
2023-01-04T22:46:02.736Z,14.80
2023-01-04T22:48:30.137Z,16.10
2023-01-04T22:50:57.663Z,15.73
2023-01-04T22:53:25.018Z,14.37
2023-01-04T22:56:18.361Z,17.00
2023-01-04T22:58:40.830Z,13.57
2023-01-04T23:01:08.921Z,14.67
2023-01-04T23:03:38.676Z,14.50
2023-01-04T23:06:09.539Z,14.67
2023-01-04T23:08:37.411Z,14.67
2023-01-04T23:11:14.900Z,15.20
2023-01-04T23:13:42.462Z,14.50
2023-01-04T23:16:13.848Z,16.90
2023-01-04T23:18:41.384Z,16.27
2023-01-04T23:21:09.284Z,15.30
2023-01-04T23:23:36.856Z,15.43
2023-01-04T23:26:14.253Z,15.67
2023-01-04T23:28:49.273Z,17.63
2023-01-04T23:31:18.195Z,17.90
2023-01-04T23:33:45.844Z,17.80
2023-01-04T23:36:13.124Z,17.70
2023-01-04T23:38:41.121Z,18.27
2023-01-04T23:41:09.005Z,18.07
2023-01-04T23:43:37.968Z,18.23
2023-01-04T23:48:37.757Z,19.27
2023-01-04T23:51:07.648Z,18.53
2023-01-04T23:53:34.988Z,16.03
2023-01-04T23:56:04.275Z,18.33
2023-01-04T23:58:33.970Z,18.10
